sensor_id;sensor_type;location;lat;lon;timestamp;temperature;humidity
6373;DHT22;3219;51.362;7.074;2023-05-29T00:01:51;13.80;99.90
6373;DHT22;3219;51.362;7.074;2023-05-29T00:04:18;13.80;97.30
6373;DHT22;3219;51.362;7.074;2023-05-29T00:06:48;13.80;97.60
6373;DHT22;3219;51.362;7.074;2023-05-29T00:09:16;13.70;97.60
6373;DHT22;3219;51.362;7.074;2023-05-29T00:11:43;13.70;97.70
6373;DHT22;3219;51.362;7.074;2023-05-29T00:14:12;13.70;97.80
6373;DHT22;3219;51.362;7.074;2023-05-29T00:16:39;13.70;97.80
6373;DHT22;3219;51.362;7.074;2023-05-29T00:19:06;13.60;97.80
6373;DHT22;3219;51.362;7.074;2023-05-29T00:21:34;13.60;97.90
6373;DHT22;3219;51.362;7.074;2023-05-29T00:24:02;13.60;98.10
6373;DHT22;3219;51.362;7.074;2023-05-29T00:26:29;13.60;98.10
6373;DHT22;3219;51.362;7.074;2023-05-29T00:28:56;13.50;98.30
6373;DHT22;3219;51.362;7.074;2023-05-29T00:31:22;13.50;98.30
6373;DHT22;3219;51.362;7.074;2023-05-29T00:33:50;13.50;98.70
6373;DHT22;3219;51.362;7.074;2023-05-29T00:36:17;13.40;98.50
6373;DHT22;3219;51.362;7.074;2023-05-29T00:38:44;13.40;98.60
6373;DHT22;3219;51.362;7.074;2023-05-29T00:41:14;13.40;98.70
6373;DHT22;3219;51.362;7.074;2023-05-29T00:43:41;13.40;98.70
6373;DHT22;3219;51.362;7.074;2023-05-29T00:46:09;13.40;98.80
6373;DHT22;3219;51.362;7.074;2023-05-29T00:48:36;13.30;99.00
6373;DHT22;3219;51.362;7.074;2023-05-29T00:51:03;13.20;99.10
6373;DHT22;3219;51.362;7.074;2023-05-29T00:53:30;13.20;99.40
6373;DHT22;3219;51.362;7.074;2023-05-29T00:55:58;13.10;99.60
6373;DHT22;3219;51.362;7.074;2023-05-29T00:58:27;13.10;99.80
6373;DHT22;3219;51.362;7.074;2023-05-29T01:00:54;13.00;99.90
6373;DHT22;3219;51.362;7.074;2023-05-29T01:03:21;13.00;99.90
6373;DHT22;3219;51.362;7.074;2023-05-29T01:05:49;12.90;99.90
6373;DHT22;3219;51.362;7.074;2023-05-29T01:08:17;12.90;99.90
6373;DHT22;3219;51.362;7.074;2023-05-29T01:10:44;12.90;99.90
6373;DHT22;3219;51.362;7.074;2023-05-29T01:13:14;12.80;99.90
6373;DHT22;3219;51.362;7.074;2023-05-29T01:15:48;12.90;99.90
6373;DHT22;3219;51.362;7.074;2023-05-29T01:18:22;12.80;99.90
6373;DHT22;3219;51.362;7.074;2023-05-29T01:20:56;12.70;99.90
6373;DHT22;3219;51.362;7.074;2023-05-29T01:23:47;12.70;99.90
6373;DHT22;3219;51.362;7.074;2023-05-29T01:26:42;12.60;99.90
6373;DHT22;3219;51.362;7.074;2023-05-29T01:29:14;12.60;99.90
6373;DHT22;3219;51.362;7.074;2023-05-29T01:31:42;12.50;99.90
6373;DHT22;3219;51.362;7.074;2023-05-29T01:34:09;12.40;99.90
6373;DHT22;3219;51.362;7.074;2023-05-29T01:36:35;12.40;99.90
6373;DHT22;3219;51.362;7.074;2023-05-29T01:39:03;12.40;99.90
6373;DHT22;3219;51.362;7.074;2023-05-29T01:41:31;12.40;99.90
6373;DHT22;3219;51.362;7.074;2023-05-29T01:44:04;12.30;99.90
6373;DHT22;3219;51.362;7.074;2023-05-29T01:46:34;12.20;99.90
6373;DHT22;3219;51.362;7.074;2023-05-29T01:49:02;12.10;99.90
6373;DHT22;3219;51.362;7.074;2023-05-29T01:51:29;12.10;99.90
6373;DHT22;3219;51.362;7.074;2023-05-29T01:53:57;12.00;99.90
6373;DHT22;3219;51.362;7.074;2023-05-29T01:56:25;11.80;99.90
6373;DHT22;3219;51.362;7.074;2023-05-29T01:58:53;11.80;99.90
6373;DHT22;3219;51.362;7.074;2023-05-29T02:01:22;11.80;99.90
6373;DHT22;3219;51.362;7.074;2023-05-29T02:03:50;11.70;99.90
6373;DHT22;3219;51.362;7.074;2023-05-29T02:06:17;11.70;99.90
6373;DHT22;3219;51.362;7.074;2023-05-29T02:08:44;11.60;99.90
6373;DHT22;3219;51.362;7.074;2023-05-29T02:11:11;11.50;99.90
6373;DHT22;3219;51.362;7.074;2023-05-29T02:13:38;11.50;99.90
6373;DHT22;3219;51.362;7.074;2023-05-29T02:16:05;11.60;99.90
6373;DHT22;3219;51.362;7.074;2023-05-29T02:18:33;11.50;99.90
6373;DHT22;3219;51.362;7.074;2023-05-29T02:21:01;11.40;99.90
6373;DHT22;3219;51.362;7.074;2023-05-29T02:23:27;11.40;99.90
6373;DHT22;3219;51.362;7.074;2023-05-29T02:25:54;11.40;99.90
6373;DHT22;3219;51.362;7.074;2023-05-29T02:28:21;11.30;99.90
6373;DHT22;3219;51.362;7.074;2023-05-29T02:30:47;11.30;99.90
6373;DHT22;3219;51.362;7.074;2023-05-29T02:33:14;11.30;99.90
6373;DHT22;3219;51.362;7.074;2023-05-29T02:35:42;11.20;99.90
6373;DHT22;3219;51.362;7.074;2023-05-29T02:38:09;11.10;99.90
6373;DHT22;3219;51.362;7.074;2023-05-29T02:40:36;10.90;99.90
6373;DHT22;3219;51.362;7.074;2023-05-29T02:43:02;10.20;99.90
6373;DHT22;3219;51.362;7.074;2023-05-29T02:45:29;10.80;99.90
6373;DHT22;3219;51.362;7.074;2023-05-29T02:47:56;10.80;99.90
6373;DHT22;3219;51.362;7.074;2023-05-29T02:50:23;10.80;99.90
6373;DHT22;3219;51.362;7.074;2023-05-29T02:52:51;10.80;99.90
6373;DHT22;3219;51.362;7.074;2023-05-29T02:55:17;11.30;99.90
6373;DHT22;3219;51.362;7.074;2023-05-29T02:57:44;10.70;99.90
6373;DHT22;3219;51.362;7.074;2023-05-29T03:00:12;10.70;99.90
6373;DHT22;3219;51.362;7.074;2023-05-29T03:02:39;10.60;99.90
6373;DHT22;3219;51.362;7.074;2023-05-29T03:05:06;10.60;99.90
6373;DHT22;3219;51.362;7.074;2023-05-29T03:07:33;10.60;99.90
6373;DHT22;3219;51.362;7.074;2023-05-29T03:10:01;10.50;99.90
6373;DHT22;3219;51.362;7.074;2023-05-29T03:12:29;10.70;99.90
6373;DHT22;3219;51.362;7.074;2023-05-29T03:19:51;10.60;99.90
6373;DHT22;3219;51.362;7.074;2023-05-29T03:22:17;9.90;99.90
6373;DHT22;3219;51.362;7.074;2023-05-29T03:24:44;9.30;99.90
6373;DHT22;3219;51.362;7.074;2023-05-29T03:27:12;10.50;99.90
6373;DHT22;3219;51.362;7.074;2023-05-29T03:29:39;11.40;99.90
6373;DHT22;3219;51.362;7.074;2023-05-29T03:32:06;10.60;99.90
6373;DHT22;3219;51.362;7.074;2023-05-29T03:34:33;10.60;99.90
6373;DHT22;3219;51.362;7.074;2023-05-29T03:36:59;10.70;99.90
6373;DHT22;3219;51.362;7.074;2023-05-29T03:39:27;10.50;99.90
6373;DHT22;3219;51.362;7.074;2023-05-29T03:41:54;10.50;99.90
6373;DHT22;3219;51.362;7.074;2023-05-29T03:44:22;10.50;99.90
6373;DHT22;3219;51.362;7.074;2023-05-29T03:46:50;10.50;99.90
6373;DHT22;3219;51.362;7.074;2023-05-29T03:49:17;9.80;99.90
6373;DHT22;3219;51.362;7.074;2023-05-29T03:51:44;10.50;99.90
6373;DHT22;3219;51.362;7.074;2023-05-29T03:54:10;10.50;99.90
6373;DHT22;3219;51.362;7.074;2023-05-29T03:56:37;10.40;99.90
6373;DHT22;3219;51.362;7.074;2023-05-29T03:59:04;10.40;99.90
6373;DHT22;3219;51.362;7.074;2023-05-29T04:01:32;10.50;99.90
6373;DHT22;3219;51.362;7.074;2023-05-29T04:03:59;10.60;99.90
6373;DHT22;3219;51.362;7.074;2023-05-29T04:06:26;10.50;99.90
6373;DHT22;3219;51.362;7.074;2023-05-29T04:08:53;10.70;99.90
6373;DHT22;3219;51.362;7.074;2023-05-29T04:11:19;10.90;99.90
6373;DHT22;3219;51.362;7.074;2023-05-29T04:13:47;11.00;99.90
6373;DHT22;3219;51.362;7.074;2023-05-29T04:16:14;11.90;99.90
6373;DHT22;3219;51.362;7.074;2023-05-29T04:18:42;11.60;99.90
6373;DHT22;3219;51.362;7.074;2023-05-29T04:21:09;11.60;99.90
6373;DHT22;3219;51.362;7.074;2023-05-29T04:23:36;11.70;99.90
6373;DHT22;3219;51.362;7.074;2023-05-29T04:26:03;12.00;99.90
6373;DHT22;3219;51.362;7.074;2023-05-29T04:28:31;12.40;99.90
6373;DHT22;3219;51.362;7.074;2023-05-29T04:30:57;13.10;99.90
6373;DHT22;3219;51.362;7.074;2023-05-29T04:33:25;13.10;99.90
6373;DHT22;3219;51.362;7.074;2023-05-29T04:35:55;13.30;99.90
6373;DHT22;3219;51.362;7.074;2023-05-29T04:38:22;13.80;99.90
6373;DHT22;3219;51.362;7.074;2023-05-29T04:40:50;14.10;99.90
6373;DHT22;3219;51.362;7.074;2023-05-29T04:43:17;14.60;99.90
6373;DHT22;3219;51.362;7.074;2023-05-29T04:45:44;15.00;99.90
6373;DHT22;3219;51.362;7.074;2023-05-29T04:48:11;15.20;99.90
6373;DHT22;3219;51.362;7.074;2023-05-29T04:50:38;15.00;99.90
6373;DHT22;3219;51.362;7.074;2023-05-29T04:55:34;15.00;99.90
6373;DHT22;3219;51.362;7.074;2023-05-29T04:58:00;15.00;99.90
6373;DHT22;3219;51.362;7.074;2023-05-29T05:00:27;14.80;99.90
6373;DHT22;3219;51.362;7.074;2023-05-29T05:02:54;14.30;99.90
6373;DHT22;3219;51.362;7.074;2023-05-29T05:05:21;14.10;99.90
6373;DHT22;3219;51.362;7.074;2023-05-29T05:07:48;13.80;99.90
6373;DHT22;3219;51.362;7.074;2023-05-29T05:10:16;13.50;99.90
6373;DHT22;3219;51.362;7.074;2023-05-29T05:12:43;13.20;99.90
6373;DHT22;3219;51.362;7.074;2023-05-29T05:15:10;13.00;99.90
6373;DHT22;3219;51.362;7.074;2023-05-29T05:20:06;12.90;99.90
6373;DHT22;3219;51.362;7.074;2023-05-29T05:25:01;12.80;99.90
6373;DHT22;3219;51.362;7.074;2023-05-29T05:27:30;12.80;99.90
6373;DHT22;3219;51.362;7.074;2023-05-29T05:29:57;12.40;99.90
6373;DHT22;3219;51.362;7.074;2023-05-29T05:34:52;13.20;99.90
6373;DHT22;3219;51.362;7.074;2023-05-29T05:37:18;13.40;99.90
6373;DHT22;3219;51.362;7.074;2023-05-29T05:39:48;13.40;99.90
6373;DHT22;3219;51.362;7.074;2023-05-29T05:42:15;13.60;99.90
6373;DHT22;3219;51.362;7.074;2023-05-29T05:44:43;13.00;99.90
6373;DHT22;3219;51.362;7.074;2023-05-29T05:47:10;13.60;99.90
6373;DHT22;3219;51.362;7.074;2023-05-29T05:49:37;13.60;99.90
6373;DHT22;3219;51.362;7.074;2023-05-29T05:52:05;13.30;99.90
6373;DHT22;3219;51.362;7.074;2023-05-29T05:54:31;13.40;99.90
6373;DHT22;3219;51.362;7.074;2023-05-29T05:56:58;13.40;99.90
6373;DHT22;3219;51.362;7.074;2023-05-29T05:59:25;13.40;99.90
6373;DHT22;3219;51.362;7.074;2023-05-29T06:01:54;13.80;99.90
6373;DHT22;3219;51.362;7.074;2023-05-29T06:04:21;14.00;99.90
6373;DHT22;3219;51.362;7.074;2023-05-29T06:06:48;14.10;99.90
6373;DHT22;3219;51.362;7.074;2023-05-29T06:09:15;14.30;99.90
6373;DHT22;3219;51.362;7.074;2023-05-29T06:11:41;14.40;99.90
6373;DHT22;3219;51.362;7.074;2023-05-29T06:14:09;14.60;99.90
6373;DHT22;3219;51.362;7.074;2023-05-29T06:16:35;14.40;99.90
6373;DHT22;3219;51.362;7.074;2023-05-29T06:19:04;14.00;99.90
6373;DHT22;3219;51.362;7.074;2023-05-29T06:21:31;14.10;99.90
6373;DHT22;3219;51.362;7.074;2023-05-29T06:23:58;13.90;99.90
6373;DHT22;3219;51.362;7.074;2023-05-29T06:26:25;14.00;99.90
6373;DHT22;3219;51.362;7.074;2023-05-29T06:28:52;14.20;99.90
6373;DHT22;3219;51.362;7.074;2023-05-29T06:31:19;14.40;99.90
6373;DHT22;3219;51.362;7.074;2023-05-29T06:33:46;14.70;99.90
6373;DHT22;3219;51.362;7.074;2023-05-29T06:36:14;14.90;99.90
6373;DHT22;3219;51.362;7.074;2023-05-29T06:38:46;15.20;99.90
6373;DHT22;3219;51.362;7.074;2023-05-29T06:41:12;15.40;99.90
6373;DHT22;3219;51.362;7.074;2023-05-29T06:46:06;15.30;99.90
6373;DHT22;3219;51.362;7.074;2023-05-29T06:48:33;15.10;99.90
6373;DHT22;3219;51.362;7.074;2023-05-29T06:51:00;15.10;99.90
6373;DHT22;3219;51.362;7.074;2023-05-29T06:55:55;15.20;99.90
6373;DHT22;3219;51.362;7.074;2023-05-29T06:58:22;15.10;99.90
6373;DHT22;3219;51.362;7.074;2023-05-29T07:00:49;15.10;99.90
6373;DHT22;3219;51.362;7.074;2023-05-29T07:05:44;15.10;99.90
6373;DHT22;3219;51.362;7.074;2023-05-29T07:10:39;15.20;98.80
6373;DHT22;3219;51.362;7.074;2023-05-29T07:13:06;15.40;99.90
6373;DHT22;3219;51.362;7.074;2023-05-29T07:15:33;15.50;99.90
6373;DHT22;3219;51.362;7.074;2023-05-29T07:18:00;15.70;99.90
6373;DHT22;3219;51.362;7.074;2023-05-29T07:20:27;16.00;99.90
6373;DHT22;3219;51.362;7.074;2023-05-29T07:22:53;16.00;99.90
6373;DHT22;3219;51.362;7.074;2023-05-29T07:25:20;15.90;99.90
6373;DHT22;3219;51.362;7.074;2023-05-29T07:27:48;15.90;99.90
6373;DHT22;3219;51.362;7.074;2023-05-29T07:30:15;15.90;99.90
6373;DHT22;3219;51.362;7.074;2023-05-29T07:32:42;16.00;99.90
6373;DHT22;3219;51.362;7.074;2023-05-29T07:35:08;16.10;99.90
6373;DHT22;3219;51.362;7.074;2023-05-29T07:37:35;16.50;99.90
6373;DHT22;3219;51.362;7.074;2023-05-29T07:40:02;16.60;99.90
6373;DHT22;3219;51.362;7.074;2023-05-29T07:42:31;16.30;99.90
6373;DHT22;3219;51.362;7.074;2023-05-29T07:44:59;16.90;99.90
6373;DHT22;3219;51.362;7.074;2023-05-29T07:47:26;16.90;99.90
6373;DHT22;3219;51.362;7.074;2023-05-29T07:49:52;16.40;99.90
6373;DHT22;3219;51.362;7.074;2023-05-29T07:52:19;16.80;99.90
6373;DHT22;3219;51.362;7.074;2023-05-29T07:54:46;17.00;99.90
6373;DHT22;3219;51.362;7.074;2023-05-29T07:57:12;16.60;99.90
6373;DHT22;3219;51.362;7.074;2023-05-29T07:59:40;16.30;99.90
6373;DHT22;3219;51.362;7.074;2023-05-29T08:02:09;16.10;99.90
6373;DHT22;3219;51.362;7.074;2023-05-29T08:07:03;16.00;99.90
6373;DHT22;3219;51.362;7.074;2023-05-29T08:09:30;16.40;99.90
6373;DHT22;3219;51.362;7.074;2023-05-29T08:11:57;16.20;99.90
6373;DHT22;3219;51.362;7.074;2023-05-29T08:14:25;16.70;99.90
6373;DHT22;3219;51.362;7.074;2023-05-29T08:16:52;16.90;99.90
6373;DHT22;3219;51.362;7.074;2023-05-29T08:19:20;17.00;99.90
6373;DHT22;3219;51.362;7.074;2023-05-29T08:21:46;16.80;98.30
6373;DHT22;3219;51.362;7.074;2023-05-29T08:24:13;16.60;99.90
6373;DHT22;3219;51.362;7.074;2023-05-29T08:26:40;16.70;99.90
6373;DHT22;3219;51.362;7.074;2023-05-29T09:01:31;17.20;99.90
6373;DHT22;3219;51.362;7.074;2023-05-29T09:21:25;16.80;99.90
6373;DHT22;3219;51.362;7.074;2023-05-29T09:23:53;17.60;99.90
6373;DHT22;3219;51.362;7.074;2023-05-29T09:26:21;17.80;99.90
6373;DHT22;3219;51.362;7.074;2023-05-29T09:28:49;17.90;99.90
6373;DHT22;3219;51.362;7.074;2023-05-29T09:31:16;17.90;99.90
6373;DHT22;3219;51.362;7.074;2023-05-29T09:36:19;17.60;99.90
6373;DHT22;3219;51.362;7.074;2023-05-29T09:41:20;18.00;99.90
6373;DHT22;3219;51.362;7.074;2023-05-29T09:43:49;18.00;99.90
6373;DHT22;3219;51.362;7.074;2023-05-29T09:46:16;17.70;99.90
6373;DHT22;3219;51.362;7.074;2023-05-29T09:48:44;17.40;99.90
6373;DHT22;3219;51.362;7.074;2023-05-29T09:51:19;17.40;99.90
6373;DHT22;3219;51.362;7.074;2023-05-29T09:53:47;17.30;99.90
6373;DHT22;3219;51.362;7.074;2023-05-29T09:56:16;17.30;99.90
6373;DHT22;3219;51.362;7.074;2023-05-29T09:58:44;17.30;96.80
6373;DHT22;3219;51.362;7.074;2023-05-29T10:01:14;17.50;97.00
6373;DHT22;3219;51.362;7.074;2023-05-29T10:03:42;17.80;96.80
6373;DHT22;3219;51.362;7.074;2023-05-29T10:06:10;18.00;96.70
6373;DHT22;3219;51.362;7.074;2023-05-29T10:08:45;17.70;96.30
6373;DHT22;3219;51.362;7.074;2023-05-29T10:11:15;17.60;96.40
6373;DHT22;3219;51.362;7.074;2023-05-29T10:13:46;17.50;96.60
6373;DHT22;3219;51.362;7.074;2023-05-29T10:16:19;17.40;96.50
6373;DHT22;3219;51.362;7.074;2023-05-29T10:18:50;17.60;97.70
6373;DHT22;3219;51.362;7.074;2023-05-29T10:21:21;17.50;97.50
6373;DHT22;3219;51.362;7.074;2023-05-29T10:23:49;17.50;97.30
6373;DHT22;3219;51.362;7.074;2023-05-29T10:26:20;17.40;97.20
6373;DHT22;3219;51.362;7.074;2023-05-29T10:28:54;17.50;97.60
6373;DHT22;3219;51.362;7.074;2023-05-29T10:31:28;17.60;96.90
6373;DHT22;3219;51.362;7.074;2023-05-29T10:34:07;17.70;96.60
6373;DHT22;3219;51.362;7.074;2023-05-29T10:36:40;17.70;97.40
6373;DHT22;3219;51.362;7.074;2023-05-29T10:39:08;17.80;96.50
6373;DHT22;3219;51.362;7.074;2023-05-29T10:41:34;18.10;96.60
6373;DHT22;3219;51.362;7.074;2023-05-29T10:44:37;18.20;96.60
6373;DHT22;3219;51.362;7.074;2023-05-29T10:47:06;18.30;96.60
6373;DHT22;3219;51.362;7.074;2023-05-29T10:49:34;18.20;95.90
6373;DHT22;3219;51.362;7.074;2023-05-29T10:52:03;18.20;97.10
6373;DHT22;3219;51.362;7.074;2023-05-29T10:54:41;18.20;97.30
6373;DHT22;3219;51.362;7.074;2023-05-29T10:57:16;18.30;96.50
6373;DHT22;3219;51.362;7.074;2023-05-29T10:59:44;18.30;96.90
6373;DHT22;3219;51.362;7.074;2023-05-29T11:02:17;18.30;96.40
6373;DHT22;3219;51.362;7.074;2023-05-29T11:04:44;18.30;96.60
6373;DHT22;3219;51.362;7.074;2023-05-29T11:07:33;18.40;97.30
6373;DHT22;3219;51.362;7.074;2023-05-29T11:10:11;18.50;97.00
6373;DHT22;3219;51.362;7.074;2023-05-29T11:12:57;18.60;96.40
6373;DHT22;3219;51.362;7.074;2023-05-29T11:15:25;18.70;97.00
6373;DHT22;3219;51.362;7.074;2023-05-29T11:17:53;18.60;96.60
6373;DHT22;3219;51.362;7.074;2023-05-29T11:20:35;18.70;96.40
6373;DHT22;3219;51.362;7.074;2023-05-29T11:23:03;18.60;95.80
6373;DHT22;3219;51.362;7.074;2023-05-29T11:25:34;18.60;96.00
6373;DHT22;3219;51.362;7.074;2023-05-29T11:28:02;18.50;96.00
6373;DHT22;3219;51.362;7.074;2023-05-29T11:30:41;18.40;95.80
6373;DHT22;3219;51.362;7.074;2023-05-29T11:33:19;18.40;96.80
6373;DHT22;3219;51.362;7.074;2023-05-29T11:35:48;18.50;96.40
6373;DHT22;3219;51.362;7.074;2023-05-29T11:38:16;18.50;95.70
6373;DHT22;3219;51.362;7.074;2023-05-29T11:40:43;18.50;95.70
6373;DHT22;3219;51.362;7.074;2023-05-29T11:43:12;18.50;96.20
6373;DHT22;3219;51.362;7.074;2023-05-29T11:45:39;18.70;95.80
6373;DHT22;3219;51.362;7.074;2023-05-29T11:48:06;18.70;96.50
6373;DHT22;3219;51.362;7.074;2023-05-29T11:50:35;18.70;95.60
6373;DHT22;3219;51.362;7.074;2023-05-29T11:53:02;18.60;95.90
6373;DHT22;3219;51.362;7.074;2023-05-29T11:55:29;18.40;95.90
6373;DHT22;3219;51.362;7.074;2023-05-29T11:57:57;18.30;96.00
6373;DHT22;3219;51.362;7.074;2023-05-29T12:00:24;18.30;96.10
6373;DHT22;3219;51.362;7.074;2023-05-29T12:02:52;18.20;96.70
6373;DHT22;3219;51.362;7.074;2023-05-29T12:05:19;18.10;96.10
6373;DHT22;3219;51.362;7.074;2023-05-29T12:07:52;18.10;96.20
6373;DHT22;3219;51.362;7.074;2023-05-29T12:10:20;18.20;96.30
6373;DHT22;3219;51.362;7.074;2023-05-29T12:12:47;18.30;95.50
6373;DHT22;3219;51.362;7.074;2023-05-29T12:15:15;18.30;95.70
6373;DHT22;3219;51.362;7.074;2023-05-29T12:17:43;18.20;96.20
6373;DHT22;3219;51.362;7.074;2023-05-29T12:20:11;18.20;95.90
6373;DHT22;3219;51.362;7.074;2023-05-29T12:22:39;18.30;96.10
6373;DHT22;3219;51.362;7.074;2023-05-29T12:25:09;18.30;95.10
6373;DHT22;3219;51.362;7.074;2023-05-29T12:27:38;18.30;95.60
6373;DHT22;3219;51.362;7.074;2023-05-29T12:30:09;18.20;96.40
6373;DHT22;3219;51.362;7.074;2023-05-29T12:32:37;18.20;95.40
6373;DHT22;3219;51.362;7.074;2023-05-29T12:35:12;18.10;95.80
6373;DHT22;3219;51.362;7.074;2023-05-29T12:37:43;18.10;95.80
6373;DHT22;3219;51.362;7.074;2023-05-29T12:40:14;18.10;95.90
6373;DHT22;3219;51.362;7.074;2023-05-29T12:42:41;18.20;95.90
6373;DHT22;3219;51.362;7.074;2023-05-29T12:45:09;18.20;95.70
6373;DHT22;3219;51.362;7.074;2023-05-29T12:47:36;18.30;95.80
6373;DHT22;3219;51.362;7.074;2023-05-29T12:50:20;18.40;95.50
6373;DHT22;3219;51.362;7.074;2023-05-29T12:52:53;18.40;95.90
6373;DHT22;3219;51.362;7.074;2023-05-29T12:55:21;18.40;96.40
6373;DHT22;3219;51.362;7.074;2023-05-29T12:57:48;18.40;95.60
6373;DHT22;3219;51.362;7.074;2023-05-29T13:00:16;18.50;97.20
6373;DHT22;3219;51.362;7.074;2023-05-29T13:02:43;18.60;99.90
6373;DHT22;3219;51.362;7.074;2023-05-29T13:05:10;18.20;98.20
6373;DHT22;3219;51.362;7.074;2023-05-29T13:07:37;18.50;98.90
6373;DHT22;3219;51.362;7.074;2023-05-29T13:10:04;18.40;99.90
6373;DHT22;3219;51.362;7.074;2023-05-29T13:12:33;19.50;96.50
6373;DHT22;3219;51.362;7.074;2023-05-29T13:15:00;18.50;99.40
6373;DHT22;3219;51.362;7.074;2023-05-29T13:17:27;18.50;97.40
6373;DHT22;3219;51.362;7.074;2023-05-29T13:19:53;18.30;97.20
6373;DHT22;3219;51.362;7.074;2023-05-29T13:22:20;18.50;99.90
6373;DHT22;3219;51.362;7.074;2023-05-29T13:24:47;18.40;99.90
6373;DHT22;3219;51.362;7.074;2023-05-29T13:27:14;18.50;99.90
6373;DHT22;3219;51.362;7.074;2023-05-29T13:29:42;18.60;99.90
6373;DHT22;3219;51.362;7.074;2023-05-29T13:34:38;18.40;99.90
6373;DHT22;3219;51.362;7.074;2023-05-29T13:37:05;18.90;99.90
6373;DHT22;3219;51.362;7.074;2023-05-29T13:39:32;18.50;99.90
6373;DHT22;3219;51.362;7.074;2023-05-29T13:41:58;18.20;99.90
6373;DHT22;3219;51.362;7.074;2023-05-29T13:44:25;18.30;99.90
6373;DHT22;3219;51.362;7.074;2023-05-29T13:46:53;18.30;99.90
6373;DHT22;3219;51.362;7.074;2023-05-29T13:49:20;18.40;99.90
6373;DHT22;3219;51.362;7.074;2023-05-29T13:51:47;18.20;99.90
6373;DHT22;3219;51.362;7.074;2023-05-29T13:54:15;18.30;99.90
6373;DHT22;3219;51.362;7.074;2023-05-29T13:56:43;18.30;99.90
6373;DHT22;3219;51.362;7.074;2023-05-29T14:01:38;18.50;95.50
6373;DHT22;3219;51.362;7.074;2023-05-29T14:04:06;18.50;95.10
6373;DHT22;3219;51.362;7.074;2023-05-29T14:06:33;18.50;95.90
6373;DHT22;3219;51.362;7.074;2023-05-29T14:09:02;18.60;95.50
6373;DHT22;3219;51.362;7.074;2023-05-29T14:11:29;18.60;95.90
6373;DHT22;3219;51.362;7.074;2023-05-29T14:13:56;18.50;95.50
6373;DHT22;3219;51.362;7.074;2023-05-29T14:16:22;18.50;95.10
6373;DHT22;3219;51.362;7.074;2023-05-29T14:18:49;18.40;95.20
6373;DHT22;3219;51.362;7.074;2023-05-29T14:21:17;18.40;95.30
6373;DHT22;3219;51.362;7.074;2023-05-29T14:23:46;18.30;95.10
6373;DHT22;3219;51.362;7.074;2023-05-29T14:26:13;18.30;95.40
6373;DHT22;3219;51.362;7.074;2023-05-29T14:28:39;18.30;95.90
6373;DHT22;3219;51.362;7.074;2023-05-29T14:31:06;18.40;95.50
6373;DHT22;3219;51.362;7.074;2023-05-29T14:33:33;18.30;94.80
6373;DHT22;3219;51.362;7.074;2023-05-29T14:36:02;18.30;94.80
6373;DHT22;3219;51.362;7.074;2023-05-29T14:38:30;18.30;94.80
6373;DHT22;3219;51.362;7.074;2023-05-29T14:40:57;17.90;96.10
6373;DHT22;3219;51.362;7.074;2023-05-29T14:43:23;18.30;95.20
6373;DHT22;3219;51.362;7.074;2023-05-29T14:45:50;17.20;93.70
6373;DHT22;3219;51.362;7.074;2023-05-29T14:48:17;18.30;95.30
6373;DHT22;3219;51.362;7.074;2023-05-29T14:50:44;18.30;97.80
6373;DHT22;3219;51.362;7.074;2023-05-29T14:53:10;18.30;94.30
6373;DHT22;3219;51.362;7.074;2023-05-29T14:55:38;19.80;94.60
6373;DHT22;3219;51.362;7.074;2023-05-29T14:58:05;18.50;95.10
6373;DHT22;3219;51.362;7.074;2023-05-29T15:00:32;19.50;96.60
6373;DHT22;3219;51.362;7.074;2023-05-29T15:02:59;18.50;95.10
6373;DHT22;3219;51.362;7.074;2023-05-29T15:05:25;18.50;99.60
6373;DHT22;3219;51.362;7.074;2023-05-29T15:07:52;18.40;93.50
6373;DHT22;3219;51.362;7.074;2023-05-29T15:10:22;18.50;93.50
6373;DHT22;3219;51.362;7.074;2023-05-29T15:12:51;18.50;93.60
6373;DHT22;3219;51.362;7.074;2023-05-29T15:15:22;18.60;94.10
6373;DHT22;3219;51.362;7.074;2023-05-29T15:17:49;18.60;94.60
6373;DHT22;3219;51.362;7.074;2023-05-29T15:20:19;18.50;94.10
6373;DHT22;3219;51.362;7.074;2023-05-29T15:22:46;18.50;94.10
6373;DHT22;3219;51.362;7.074;2023-05-29T15:25:14;18.40;94.00
6373;DHT22;3219;51.362;7.074;2023-05-29T15:27:41;18.30;93.80
6373;DHT22;3219;51.362;7.074;2023-05-29T15:30:10;18.30;93.80
6373;DHT22;3219;51.362;7.074;2023-05-29T15:32:38;18.30;94.70
6373;DHT22;3219;51.362;7.074;2023-05-29T15:35:06;18.30;93.90
6373;DHT22;3219;51.362;7.074;2023-05-29T15:37:33;18.30;94.30
6373;DHT22;3219;51.362;7.074;2023-05-29T15:40:01;18.30;93.90
6373;DHT22;3219;51.362;7.074;2023-05-29T15:42:28;18.20;94.30
6373;DHT22;3219;51.362;7.074;2023-05-29T15:44:55;18.20;93.80
6373;DHT22;3219;51.362;7.074;2023-05-29T15:47:23;18.20;93.80
6373;DHT22;3219;51.362;7.074;2023-05-29T15:49:50;18.30;93.40
6373;DHT22;3219;51.362;7.074;2023-05-29T15:52:17;18.30;94.00
6373;DHT22;3219;51.362;7.074;2023-05-29T15:54:44;18.30;93.60
6373;DHT22;3219;51.362;7.074;2023-05-29T15:57:11;18.30;92.80
6373;DHT22;3219;51.362;7.074;2023-05-29T15:59:37;18.40;93.10
6373;DHT22;3219;51.362;7.074;2023-05-29T16:02:05;18.40;93.30
6373;DHT22;3219;51.362;7.074;2023-05-29T16:04:33;18.40;92.90
6373;DHT22;3219;51.362;7.074;2023-05-29T16:06:59;18.40;92.50
6373;DHT22;3219;51.362;7.074;2023-05-29T16:09:27;18.40;92.50
6373;DHT22;3219;51.362;7.074;2023-05-29T16:11:54;18.40;92.10
6373;DHT22;3219;51.362;7.074;2023-05-29T16:14:21;18.40;91.70
6373;DHT22;3219;51.362;7.074;2023-05-29T16:16:47;18.40;91.80
6373;DHT22;3219;51.362;7.074;2023-05-29T16:19:14;18.40;92.40
6373;DHT22;3219;51.362;7.074;2023-05-29T16:21:43;18.40;91.30
6373;DHT22;3219;51.362;7.074;2023-05-29T16:24:10;18.30;91.80
6373;DHT22;3219;51.362;7.074;2023-05-29T16:26:36;18.30;91.50
6373;DHT22;3219;51.362;7.074;2023-05-29T16:29:04;18.30;91.30
6373;DHT22;3219;51.362;7.074;2023-05-29T16:31:31;18.30;91.60
6373;DHT22;3219;51.362;7.074;2023-05-29T16:33:58;18.30;91.70
6373;DHT22;3219;51.362;7.074;2023-05-29T16:36:25;18.40;91.10
6373;DHT22;3219;51.362;7.074;2023-05-29T16:38:53;18.40;90.70
6373;DHT22;3219;51.362;7.074;2023-05-29T16:41:20;18.40;90.30
6373;DHT22;3219;51.362;7.074;2023-05-29T16:43:47;18.40;90.00
6373;DHT22;3219;51.362;7.074;2023-05-29T16:46:14;18.40;90.10
6373;DHT22;3219;51.362;7.074;2023-05-29T16:48:41;18.30;90.00
6373;DHT22;3219;51.362;7.074;2023-05-29T16:51:08;18.30;90.10
6373;DHT22;3219;51.362;7.074;2023-05-29T16:53:36;18.30;88.50
6373;DHT22;3219;51.362;7.074;2023-05-29T16:56:06;18.20;89.70
6373;DHT22;3219;51.362;7.074;2023-05-29T16:58:33;18.20;88.00
6373;DHT22;3219;51.362;7.074;2023-05-29T17:01:00;18.20;86.90
6373;DHT22;3219;51.362;7.074;2023-05-29T17:03:27;18.10;87.60
6373;DHT22;3219;51.362;7.074;2023-05-29T17:05:53;18.10;84.70
6373;DHT22;3219;51.362;7.074;2023-05-29T17:08:20;18.10;84.60
6373;DHT22;3219;51.362;7.074;2023-05-29T17:10:47;18.00;87.10
6373;DHT22;3219;51.362;7.074;2023-05-29T17:13:15;18.00;87.90
6373;DHT22;3219;51.362;7.074;2023-05-29T17:15:42;18.00;87.40
6373;DHT22;3219;51.362;7.074;2023-05-29T17:18:09;18.00;85.80
6373;DHT22;3219;51.362;7.074;2023-05-29T17:20:36;18.00;87.10
6373;DHT22;3219;51.362;7.074;2023-05-29T17:23:03;18.00;83.70
6373;DHT22;3219;51.362;7.074;2023-05-29T17:25:30;17.90;84.40
6373;DHT22;3219;51.362;7.074;2023-05-29T17:27:57;17.90;83.80
6373;DHT22;3219;51.362;7.074;2023-05-29T17:30:26;18.00;83.20
6373;DHT22;3219;51.362;7.074;2023-05-29T17:32:53;18.00;84.20
6373;DHT22;3219;51.362;7.074;2023-05-29T17:35:19;18.00;84.70